Pays
Station

 

Conditions  météo  pour  Tampico/Gen Fj Mina  -  Mexique    Mexique

  
24 °C
    
 
 

METAR pour Tampico/Gen Fj Mina :

MMTM 231140Z 00000KT 6SM SCT070 SCT200 24/23 A2993 RMK SLP141 5//// 917 8/031 CU HZY

 

Voici le bulletin pour Tampico/Gen Fj Mina - Mexique.
 
Le bulletin a été fait il y a 53 minutes, à 11:40 UTC .
Le vent était calme.
 
La température était de 24 °C, avec un point de rosée à 23 °C.
La température ressentie était de 23 °C.
 
La pression atmosphérique était de 1014 hPa.
L'humidité relative était de 94.2%.
 
Il y avait 3 à 4/8ème de nébulosité à une hauteur de 2134 mètres et 3 à 4/8ème de nébulosité à une hauteur de 6096 mètres.
 
La visibilité globale était de 9.7 kilomètres.
 

 
 
 

Pays :   A   B   C   D   E   F   G   H   I   J   K   L   M   N   O   P   Q   R   S   T   U   V   W   Y   Z

 

Partenaires :  Info Météo avec Met'info
Météo Marine avec MeteoMarine.net
Infos Site  |  Infos Légales  |  Crédits  |  Confidentialité
Contactez-nous  |  Ajouter aux favoris
© 2013-2018 METAR - Tous droits réservés